sensor_id;sensor_type;location;lat;lon;timestamp;P1;durP1;ratioP1;P2;durP2;ratioP2
62927;SDS011;51070;52.236;-0.892;2023-01-08T00:01:57;11.10;;;2.60;;
62927;SDS011;51070;52.236;-0.892;2023-01-08T00:04:22;10.40;;;3.10;;
62927;SDS011;51070;52.236;-0.892;2023-01-08T00:06:48;17.60;;;3.00;;
62927;SDS011;51070;52.236;-0.892;2023-01-08T00:09:13;10.00;;;2.50;;
62927;SDS011;51070;52.236;-0.892;2023-01-08T00:11:38;16.30;;;2.70;;
62927;SDS011;51070;52.236;-0.892;2023-01-08T00:14:05;14.90;;;3.30;;
62927;SDS011;51070;52.236;-0.892;2023-01-08T00:16:30;7.20;;;2.10;;
62927;SDS011;51070;52.236;-0.892;2023-01-08T00:18:56;12.80;;;2.70;;
62927;SDS011;51070;52.236;-0.892;2023-01-08T00:21:21;13.20;;;2.60;;
62927;SDS011;51070;52.236;-0.892;2023-01-08T00:23:47;7.10;;;1.80;;
62927;SDS011;51070;52.236;-0.892;2023-01-08T00:26:13;9.00;;;2.10;;
62927;SDS011;51070;52.236;-0.892;2023-01-08T00:28:38;10.40;;;2.70;;
62927;SDS011;51070;52.236;-0.892;2023-01-08T00:31:05;10.10;;;1.50;;
62927;SDS011;51070;52.236;-0.892;2023-01-08T00:33:32;15.40;;;2.90;;
62927;SDS011;51070;52.236;-0.892;2023-01-08T00:35:57;13.30;;;2.60;;
62927;SDS011;51070;52.236;-0.892;2023-01-08T00:38:26;11.10;;;2.60;;
62927;SDS011;51070;52.236;-0.892;2023-01-08T00:40:53;10.40;;;2.10;;
62927;SDS011;51070;52.236;-0.892;2023-01-08T00:43:19;11.20;;;2.40;;
62927;SDS011;51070;52.236;-0.892;2023-01-08T00:45:44;11.70;;;2.80;;
62927;SDS011;51070;52.236;-0.892;2023-01-08T00:48:10;10.80;;;2.20;;
62927;SDS011;51070;52.236;-0.892;2023-01-08T00:50:36;9.00;;;2.30;;
62927;SDS011;51070;52.236;-0.892;2023-01-08T00:53:01;13.60;;;2.70;;
62927;SDS011;51070;52.236;-0.892;2023-01-08T00:55:27;10.70;;;2.50;;
62927;SDS011;51070;52.236;-0.892;2023-01-08T00:57:53;13.90;;;3.00;;
62927;SDS011;51070;52.236;-0.892;2023-01-08T01:00:20;7.20;;;1.70;;
62927;SDS011;51070;52.236;-0.892;2023-01-08T01:02:46;7.00;;;1.60;;
62927;SDS011;51070;52.236;-0.892;2023-01-08T01:05:12;13.40;;;3.40;;
62927;SDS011;51070;52.236;-0.892;2023-01-08T01:07:40;6.20;;;2.20;;
62927;SDS011;51070;52.236;-0.892;2023-01-08T01:10:06;12.90;;;2.70;;
62927;SDS011;51070;52.236;-0.892;2023-01-08T01:12:32;13.60;;;2.00;;
62927;SDS011;51070;52.236;-0.892;2023-01-08T01:14:58;15.80;;;3.10;;
62927;SDS011;51070;52.236;-0.892;2023-01-08T01:17:23;9.90;;;2.10;;
62927;SDS011;51070;52.236;-0.892;2023-01-08T01:19:49;11.30;;;2.40;;
62927;SDS011;51070;52.236;-0.892;2023-01-08T01:22:14;7.60;;;2.30;;
62927;SDS011;51070;52.236;-0.892;2023-01-08T01:24:40;10.20;;;2.80;;
62927;SDS011;51070;52.236;-0.892;2023-01-08T01:27:05;9.50;;;2.40;;
62927;SDS011;51070;52.236;-0.892;2023-01-08T01:29:30;11.80;;;3.30;;
62927;SDS011;51070;52.236;-0.892;2023-01-08T01:31:56;15.00;;;2.80;;
62927;SDS011;51070;52.236;-0.892;2023-01-08T01:34:21;6.70;;;2.10;;
62927;SDS011;51070;52.236;-0.892;2023-01-08T01:36:47;13.40;;;3.20;;
62927;SDS011;51070;52.236;-0.892;2023-01-08T01:39:12;15.70;;;2.80;;
62927;SDS011;51070;52.236;-0.892;2023-01-08T01:41:39;12.90;;;2.80;;
62927;SDS011;51070;52.236;-0.892;2023-01-08T01:47:02;14.50;;;2.30;;
62927;SDS011;51070;52.236;-0.892;2023-01-08T01:49:36;14.60;;;2.70;;
62927;SDS011;51070;52.236;-0.892;2023-01-08T01:52:04;7.60;;;1.90;;
62927;SDS011;51070;52.236;-0.892;2023-01-08T01:54:32;13.00;;;3.10;;
62927;SDS011;51070;52.236;-0.892;2023-01-08T01:57:00;16.10;;;3.10;;
62927;SDS011;51070;52.236;-0.892;2023-01-08T01:59:25;11.90;;;2.70;;
62927;SDS011;51070;52.236;-0.892;2023-01-08T02:01:51;9.20;;;3.00;;
62927;SDS011;51070;52.236;-0.892;2023-01-08T02:04:18;10.00;;;2.40;;
62927;SDS011;51070;52.236;-0.892;2023-01-08T02:11:53;12.50;;;2.90;;
62927;SDS011;51070;52.236;-0.892;2023-01-08T02:17:40;10.30;;;3.10;;
62927;SDS011;51070;52.236;-0.892;2023-01-08T02:20:31;12.10;;;3.80;;
62927;SDS011;51070;52.236;-0.892;2023-01-08T02:23:21;8.30;;;1.30;;
62927;SDS011;51070;52.236;-0.892;2023-01-08T02:28:58;14.10;;;2.90;;
62927;SDS011;51070;52.236;-0.892;2023-01-08T02:31:25;9.80;;;1.80;;
62927;SDS011;51070;52.236;-0.892;2023-01-08T02:33:53;16.00;;;3.40;;
62927;SDS011;51070;52.236;-0.892;2023-01-08T02:39:07;11.50;;;1.40;;
62927;SDS011;51070;52.236;-0.892;2023-01-08T02:47:29;9.90;;;2.50;;
62927;SDS011;51070;52.236;-0.892;2023-01-08T02:50:19;8.90;;;2.10;;
62927;SDS011;51070;52.236;-0.892;2023-01-08T02:55:34;12.00;;;2.60;;
62927;SDS011;51070;52.236;-0.892;2023-01-08T02:58:03;5.30;;;1.40;;
62927;SDS011;51070;52.236;-0.892;2023-01-08T03:00:30;17.60;;;2.40;;
62927;SDS011;51070;52.236;-0.892;2023-01-08T03:03:04;10.40;;;3.00;;
62927;SDS011;51070;52.236;-0.892;2023-01-08T03:05:44;9.30;;;2.00;;
62927;SDS011;51070;52.236;-0.892;2023-01-08T03:08:12;11.20;;;2.40;;
62927;SDS011;51070;52.236;-0.892;2023-01-08T03:10:38;11.40;;;2.80;;
62927;SDS011;51070;52.236;-0.892;2023-01-08T03:13:13;11.60;;;1.50;;
62927;SDS011;51070;52.236;-0.892;2023-01-08T03:15:48;15.30;;;2.60;;
62927;SDS011;51070;52.236;-0.892;2023-01-08T03:18:18;10.20;;;2.00;;
62927;SDS011;51070;52.236;-0.892;2023-01-08T03:20:48;10.90;;;3.10;;
62927;SDS011;51070;52.236;-0.892;2023-01-08T03:23:15;7.90;;;1.60;;
62927;SDS011;51070;52.236;-0.892;2023-01-08T03:28:23;7.80;;;1.80;;
62927;SDS011;51070;52.236;-0.892;2023-01-08T03:30:55;6.90;;;1.60;;
62927;SDS011;51070;52.236;-0.892;2023-01-08T03:35:50;6.90;;;2.10;;
62927;SDS011;51070;52.236;-0.892;2023-01-08T03:38:19;9.90;;;2.10;;
62927;SDS011;51070;52.236;-0.892;2023-01-08T03:40:51;8.70;;;1.60;;
62927;SDS011;51070;52.236;-0.892;2023-01-08T03:43:20;7.50;;;2.10;;
62927;SDS011;51070;52.236;-0.892;2023-01-08T03:45:49;8.80;;;2.00;;
62927;SDS011;51070;52.236;-0.892;2023-01-08T03:48:19;14.10;;;2.40;;
62927;SDS011;51070;52.236;-0.892;2023-01-08T03:50:46;11.20;;;3.40;;
62927;SDS011;51070;52.236;-0.892;2023-01-08T03:53:12;19.30;;;2.20;;
62927;SDS011;51070;52.236;-0.892;2023-01-08T03:55:38;14.70;;;2.40;;
62927;SDS011;51070;52.236;-0.892;2023-01-08T03:58:03;7.80;;;1.90;;
62927;SDS011;51070;52.236;-0.892;2023-01-08T04:00:28;8.90;;;2.30;;
62927;SDS011;51070;52.236;-0.892;2023-01-08T04:02:54;11.10;;;2.20;;
62927;SDS011;51070;52.236;-0.892;2023-01-08T04:05:19;10.60;;;2.20;;
62927;SDS011;51070;52.236;-0.892;2023-01-08T04:07:44;14.30;;;2.60;;
62927;SDS011;51070;52.236;-0.892;2023-01-08T04:10:10;5.10;;;1.90;;
62927;SDS011;51070;52.236;-0.892;2023-01-08T04:12:35;5.80;;;2.00;;
62927;SDS011;51070;52.236;-0.892;2023-01-08T04:15:01;8.30;;;1.80;;
62927;SDS011;51070;52.236;-0.892;2023-01-08T04:17:26;9.10;;;1.70;;
62927;SDS011;51070;52.236;-0.892;2023-01-08T04:19:52;6.80;;;1.70;;
62927;SDS011;51070;52.236;-0.892;2023-01-08T04:22:17;7.70;;;2.50;;
62927;SDS011;51070;52.236;-0.892;2023-01-08T04:24:43;10.50;;;2.40;;
62927;SDS011;51070;52.236;-0.892;2023-01-08T04:27:08;4.40;;;0.80;;
62927;SDS011;51070;52.236;-0.892;2023-01-08T04:29:33;4.10;;;1.20;;
62927;SDS011;51070;52.236;-0.892;2023-01-08T04:31:59;4.70;;;1.40;;
62927;SDS011;51070;52.236;-0.892;2023-01-08T04:34:25;21.00;;;2.00;;
62927;SDS011;51070;52.236;-0.892;2023-01-08T04:36:50;9.40;;;1.40;;
62927;SDS011;51070;52.236;-0.892;2023-01-08T04:39:15;10.60;;;1.60;;
62927;SDS011;51070;52.236;-0.892;2023-01-08T04:41:41;11.60;;;1.50;;
62927;SDS011;51070;52.236;-0.892;2023-01-08T04:44:07;9.50;;;1.60;;
62927;SDS011;51070;52.236;-0.892;2023-01-08T04:46:33;10.10;;;2.20;;
62927;SDS011;51070;52.236;-0.892;2023-01-08T04:48:58;7.60;;;1.60;;
62927;SDS011;51070;52.236;-0.892;2023-01-08T04:51:24;4.40;;;1.20;;
62927;SDS011;51070;52.236;-0.892;2023-01-08T04:53:50;2.60;;;1.00;;
62927;SDS011;51070;52.236;-0.892;2023-01-08T04:56:16;7.70;;;2.10;;
62927;SDS011;51070;52.236;-0.892;2023-01-08T04:58:41;5.30;;;1.50;;
62927;SDS011;51070;52.236;-0.892;2023-01-08T05:01:40;1.40;;;0.80;;
62927;SDS011;51070;52.236;-0.892;2023-01-08T05:04:00;8.00;;;1.10;;
62927;SDS011;51070;52.236;-0.892;2023-01-08T05:06:27;7.70;;;1.40;;
62927;SDS011;51070;52.236;-0.892;2023-01-08T05:08:54;5.60;;;1.30;;
62927;SDS011;51070;52.236;-0.892;2023-01-08T05:11:20;4.50;;;0.90;;
62927;SDS011;51070;52.236;-0.892;2023-01-08T05:13:46;7.10;;;1.50;;
62927;SDS011;51070;52.236;-0.892;2023-01-08T05:16:13;4.80;;;1.00;;
62927;SDS011;51070;52.236;-0.892;2023-01-08T05:18:38;4.30;;;1.10;;
62927;SDS011;51070;52.236;-0.892;2023-01-08T05:21:04;4.70;;;1.30;;
62927;SDS011;51070;52.236;-0.892;2023-01-08T05:23:30;2.20;;;0.60;;
62927;SDS011;51070;52.236;-0.892;2023-01-08T05:25:57;3.50;;;1.00;;
62927;SDS011;51070;52.236;-0.892;2023-01-08T05:28:24;1.40;;;0.50;;
62927;SDS011;51070;52.236;-0.892;2023-01-08T05:30:50;2.20;;;0.40;;
62927;SDS011;51070;52.236;-0.892;2023-01-08T05:33:15;5.60;;;1.00;;
62927;SDS011;51070;52.236;-0.892;2023-01-08T05:35:41;2.20;;;0.60;;
62927;SDS011;51070;52.236;-0.892;2023-01-08T05:38:06;1.60;;;0.60;;
62927;SDS011;51070;52.236;-0.892;2023-01-08T05:40:32;4.50;;;0.60;;
62927;SDS011;51070;52.236;-0.892;2023-01-08T05:42:58;1.30;;;0.30;;
62927;SDS011;51070;52.236;-0.892;2023-01-08T05:45:24;3.40;;;0.90;;
62927;SDS011;51070;52.236;-0.892;2023-01-08T05:47:49;5.60;;;0.60;;
62927;SDS011;51070;52.236;-0.892;2023-01-08T05:50:15;3.00;;;0.80;;
62927;SDS011;51070;52.236;-0.892;2023-01-08T05:52:40;3.00;;;0.60;;
62927;SDS011;51070;52.236;-0.892;2023-01-08T05:55:06;2.10;;;0.50;;
62927;SDS011;51070;52.236;-0.892;2023-01-08T05:57:32;2.10;;;0.50;;
62927;SDS011;51070;52.236;-0.892;2023-01-08T05:59:58;2.90;;;0.70;;
62927;SDS011;51070;52.236;-0.892;2023-01-08T06:02:23;1.80;;;0.50;;
62927;SDS011;51070;52.236;-0.892;2023-01-08T06:04:48;1.60;;;0.40;;
62927;SDS011;51070;52.236;-0.892;2023-01-08T06:07:14;0.20;;;0.20;;
62927;SDS011;51070;52.236;-0.892;2023-01-08T06:09:39;3.50;;;0.50;;
62927;SDS011;51070;52.236;-0.892;2023-01-08T06:12:05;3.00;;;0.40;;
62927;SDS011;51070;52.236;-0.892;2023-01-08T06:14:31;2.10;;;0.30;;
62927;SDS011;51070;52.236;-0.892;2023-01-08T06:16:56;0.60;;;0.30;;
62927;SDS011;51070;52.236;-0.892;2023-01-08T06:19:22;2.90;;;0.40;;
62927;SDS011;51070;52.236;-0.892;2023-01-08T06:21:48;1.60;;;0.40;;
62927;SDS011;51070;52.236;-0.892;2023-01-08T06:24:13;1.10;;;0.60;;
62927;SDS011;51070;52.236;-0.892;2023-01-08T06:26:39;0.80;;;0.30;;
62927;SDS011;51070;52.236;-0.892;2023-01-08T06:29:04;1.20;;;0.30;;
62927;SDS011;51070;52.236;-0.892;2023-01-08T06:31:30;0.90;;;0.30;;
62927;SDS011;51070;52.236;-0.892;2023-01-08T06:33:55;0.80;;;0.40;;
62927;SDS011;51070;52.236;-0.892;2023-01-08T06:36:20;1.70;;;0.50;;
62927;SDS011;51070;52.236;-0.892;2023-01-08T06:38:46;2.20;;;0.50;;
62927;SDS011;51070;52.236;-0.892;2023-01-08T06:41:11;1.20;;;0.40;;
62927;SDS011;51070;52.236;-0.892;2023-01-08T06:43:37;4.70;;;0.70;;
62927;SDS011;51070;52.236;-0.892;2023-01-08T06:46:03;2.30;;;0.50;;
62927;SDS011;51070;52.236;-0.892;2023-01-08T06:48:30;1.20;;;0.50;;
62927;SDS011;51070;52.236;-0.892;2023-01-08T06:50:58;2.00;;;1.10;;
62927;SDS011;51070;52.236;-0.892;2023-01-08T06:53:24;2.00;;;0.70;;
62927;SDS011;51070;52.236;-0.892;2023-01-08T06:55:50;2.70;;;0.80;;
62927;SDS011;51070;52.236;-0.892;2023-01-08T06:58:21;4.00;;;0.60;;
62927;SDS011;51070;52.236;-0.892;2023-01-08T07:00:47;2.80;;;1.20;;
62927;SDS011;51070;52.236;-0.892;2023-01-08T07:03:13;2.00;;;0.50;;
62927;SDS011;51070;52.236;-0.892;2023-01-08T07:05:39;1.60;;;0.50;;
62927;SDS011;51070;52.236;-0.892;2023-01-08T07:08:04;1.90;;;0.80;;
62927;SDS011;51070;52.236;-0.892;2023-01-08T07:10:30;2.20;;;0.60;;
62927;SDS011;51070;52.236;-0.892;2023-01-08T07:12:56;3.40;;;1.00;;
62927;SDS011;51070;52.236;-0.892;2023-01-08T07:15:22;2.20;;;0.60;;
62927;SDS011;51070;52.236;-0.892;2023-01-08T07:17:47;1.60;;;0.50;;
62927;SDS011;51070;52.236;-0.892;2023-01-08T07:20:13;4.70;;;0.70;;
62927;SDS011;51070;52.236;-0.892;2023-01-08T07:22:39;4.30;;;1.00;;
62927;SDS011;51070;52.236;-0.892;2023-01-08T07:25:04;2.50;;;0.50;;
62927;SDS011;51070;52.236;-0.892;2023-01-08T07:27:31;3.10;;;0.60;;
62927;SDS011;51070;52.236;-0.892;2023-01-08T07:29:56;3.90;;;0.80;;
62927;SDS011;51070;52.236;-0.892;2023-01-08T07:32:22;1.90;;;0.40;;
62927;SDS011;51070;52.236;-0.892;2023-01-08T07:34:47;4.80;;;0.80;;
62927;SDS011;51070;52.236;-0.892;2023-01-08T07:37:13;1.40;;;0.50;;
62927;SDS011;51070;52.236;-0.892;2023-01-08T07:39:38;5.20;;;1.40;;
62927;SDS011;51070;52.236;-0.892;2023-01-08T07:42:03;1.80;;;0.60;;
62927;SDS011;51070;52.236;-0.892;2023-01-08T07:44:29;3.20;;;0.60;;
62927;SDS011;51070;52.236;-0.892;2023-01-08T07:46:54;1.20;;;0.40;;
62927;SDS011;51070;52.236;-0.892;2023-01-08T07:49:20;4.90;;;1.80;;
62927;SDS011;51070;52.236;-0.892;2023-01-08T07:51:47;6.30;;;0.80;;
62927;SDS011;51070;52.236;-0.892;2023-01-08T07:54:13;1.10;;;0.40;;
62927;SDS011;51070;52.236;-0.892;2023-01-08T07:56:38;2.20;;;0.90;;
62927;SDS011;51070;52.236;-0.892;2023-01-08T07:59:04;1.60;;;1.00;;
62927;SDS011;51070;52.236;-0.892;2023-01-08T08:01:29;2.70;;;0.50;;
62927;SDS011;51070;52.236;-0.892;2023-01-08T08:03:54;1.00;;;0.60;;
62927;SDS011;51070;52.236;-0.892;2023-01-08T08:06:20;4.70;;;0.70;;
62927;SDS011;51070;52.236;-0.892;2023-01-08T08:08:45;2.00;;;0.50;;
62927;SDS011;51070;52.236;-0.892;2023-01-08T08:11:11;1.00;;;0.50;;
62927;SDS011;51070;52.236;-0.892;2023-01-08T08:13:36;3.80;;;0.90;;
62927;SDS011;51070;52.236;-0.892;2023-01-08T08:16:06;5.50;;;1.00;;
62927;SDS011;51070;52.236;-0.892;2023-01-08T08:18:32;0.90;;;0.70;;
62927;SDS011;51070;52.236;-0.892;2023-01-08T08:20:58;1.70;;;0.50;;
62927;SDS011;51070;52.236;-0.892;2023-01-08T08:23:23;2.60;;;0.80;;
62927;SDS011;51070;52.236;-0.892;2023-01-08T08:25:49;2.30;;;0.80;;
62927;SDS011;51070;52.236;-0.892;2023-01-08T08:28:16;4.40;;;1.10;;
62927;SDS011;51070;52.236;-0.892;2023-01-08T08:30:42;3.80;;;0.80;;
62927;SDS011;51070;52.236;-0.892;2023-01-08T08:33:07;2.30;;;0.70;;
62927;SDS011;51070;52.236;-0.892;2023-01-08T08:35:33;6.10;;;0.70;;
62927;SDS011;51070;52.236;-0.892;2023-01-08T08:38:00;7.00;;;1.90;;
62927;SDS011;51070;52.236;-0.892;2023-01-08T08:40:25;4.00;;;1.00;;
62927;SDS011;51070;52.236;-0.892;2023-01-08T08:42:58;2.20;;;0.80;;
62927;SDS011;51070;52.236;-0.892;2023-01-08T08:45:25;2.50;;;0.90;;
62927;SDS011;51070;52.236;-0.892;2023-01-08T08:47:51;2.30;;;0.50;;
62927;SDS011;51070;52.236;-0.892;2023-01-08T08:50:17;4.00;;;1.50;;
62927;SDS011;51070;52.236;-0.892;2023-01-08T08:52:43;6.00;;;1.30;;
62927;SDS011;51070;52.236;-0.892;2023-01-08T08:55:10;4.00;;;0.70;;
62927;SDS011;51070;52.236;-0.892;2023-01-08T08:57:41;6.90;;;1.60;;
62927;SDS011;51070;52.236;-0.892;2023-01-08T09:00:08;5.30;;;1.20;;
62927;SDS011;51070;52.236;-0.892;2023-01-08T09:02:34;5.00;;;1.20;;
62927;SDS011;51070;52.236;-0.892;2023-01-08T09:04:59;3.80;;;1.20;;
62927;SDS011;51070;52.236;-0.892;2023-01-08T09:07:25;4.10;;;0.80;;
62927;SDS011;51070;52.236;-0.892;2023-01-08T09:09:50;3.40;;;0.90;;
62927;SDS011;51070;52.236;-0.892;2023-01-08T09:12:16;3.40;;;1.00;;
62927;SDS011;51070;52.236;-0.892;2023-01-08T09:14:41;3.30;;;0.80;;
62927;SDS011;51070;52.236;-0.892;2023-01-08T09:17:07;4.20;;;1.20;;
62927;SDS011;51070;52.236;-0.892;2023-01-08T09:19:32;9.70;;;1.60;;
62927;SDS011;51070;52.236;-0.892;2023-01-08T09:21:58;11.70;;;1.40;;
62927;SDS011;51070;52.236;-0.892;2023-01-08T09:24:23;4.30;;;1.10;;
62927;SDS011;51070;52.236;-0.892;2023-01-08T09:26:48;6.90;;;1.30;;
62927;SDS011;51070;52.236;-0.892;2023-01-08T09:29:16;7.10;;;1.00;;
62927;SDS011;51070;52.236;-0.892;2023-01-08T09:31:41;5.50;;;1.40;;
62927;SDS011;51070;52.236;-0.892;2023-01-08T09:34:07;3.40;;;0.90;;
62927;SDS011;51070;52.236;-0.892;2023-01-08T09:36:32;5.20;;;1.30;;
62927;SDS011;51070;52.236;-0.892;2023-01-08T09:38:58;4.80;;;1.30;;
62927;SDS011;51070;52.236;-0.892;2023-01-08T09:41:26;5.90;;;2.50;;
62927;SDS011;51070;52.236;-0.892;2023-01-08T09:43:54;4.80;;;1.20;;
62927;SDS011;51070;52.236;-0.892;2023-01-08T09:46:23;2.10;;;1.30;;
62927;SDS011;51070;52.236;-0.892;2023-01-08T09:48:51;2.60;;;1.00;;
62927;SDS011;51070;52.236;-0.892;2023-01-08T09:51:26;6.00;;;1.10;;
62927;SDS011;51070;52.236;-0.892;2023-01-08T09:53:56;6.20;;;0.90;;
62927;SDS011;51070;52.236;-0.892;2023-01-08T09:56:22;8.20;;;1.30;;
62927;SDS011;51070;52.236;-0.892;2023-01-08T09:58:51;2.80;;;0.60;;
62927;SDS011;51070;52.236;-0.892;2023-01-08T10:01:23;6.90;;;1.90;;
62927;SDS011;51070;52.236;-0.892;2023-01-08T10:04:06;6.00;;;1.40;;
62927;SDS011;51070;52.236;-0.892;2023-01-08T10:06:39;4.50;;;1.10;;
62927;SDS011;51070;52.236;-0.892;2023-01-08T10:09:05;3.40;;;0.90;;
62927;SDS011;51070;52.236;-0.892;2023-01-08T10:11:42;7.20;;;1.30;;
62927;SDS011;51070;52.236;-0.892;2023-01-08T10:14:18;3.30;;;1.00;;
62927;SDS011;51070;52.236;-0.892;2023-01-08T10:16:51;2.70;;;1.20;;
62927;SDS011;51070;52.236;-0.892;2023-01-08T10:19:21;8.10;;;1.60;;
62927;SDS011;51070;52.236;-0.892;2023-01-08T10:21:47;2.90;;;0.70;;
62927;SDS011;51070;52.236;-0.892;2023-01-08T10:24:12;5.00;;;0.80;;
62927;SDS011;51070;52.236;-0.892;2023-01-08T10:26:38;4.70;;;1.20;;
62927;SDS011;51070;52.236;-0.892;2023-01-08T10:29:07;3.10;;;0.90;;
62927;SDS011;51070;52.236;-0.892;2023-01-08T10:31:50;4.70;;;1.90;;
62927;SDS011;51070;52.236;-0.892;2023-01-08T10:34:31;4.20;;;0.90;;
62927;SDS011;51070;52.236;-0.892;2023-01-08T10:37:13;3.60;;;1.00;;
62927;SDS011;51070;52.236;-0.892;2023-01-08T10:39:47;3.70;;;0.90;;
62927;SDS011;51070;52.236;-0.892;2023-01-08T10:42:13;4.90;;;1.60;;
62927;SDS011;51070;52.236;-0.892;2023-01-08T10:44:48;4.50;;;0.90;;
62927;SDS011;51070;52.236;-0.892;2023-01-08T10:47:20;5.20;;;1.40;;
62927;SDS011;51070;52.236;-0.892;2023-01-08T10:49:47;5.50;;;1.40;;
62927;SDS011;51070;52.236;-0.892;2023-01-08T10:52:26;2.90;;;1.20;;
62927;SDS011;51070;52.236;-0.892;2023-01-08T10:54:55;3.50;;;0.60;;
62927;SDS011;51070;52.236;-0.892;2023-01-08T10:59:48;7.90;;;1.60;;
62927;SDS011;51070;52.236;-0.892;2023-01-08T11:02:23;7.10;;;1.20;;
62927;SDS011;51070;52.236;-0.892;2023-01-08T11:04:52;6.00;;;1.20;;
62927;SDS011;51070;52.236;-0.892;2023-01-08T11:07:19;6.90;;;1.60;;
62927;SDS011;51070;52.236;-0.892;2023-01-08T11:09:48;6.50;;;1.40;;
62927;SDS011;51070;52.236;-0.892;2023-01-08T11:17:42;2.70;;;1.00;;
62927;SDS011;51070;52.236;-0.892;2023-01-08T11:20:21;2.30;;;1.00;;
62927;SDS011;51070;52.236;-0.892;2023-01-08T11:23:02;7.10;;;1.50;;
62927;SDS011;51070;52.236;-0.892;2023-01-08T11:25:51;3.40;;;2.00;;
62927;SDS011;51070;52.236;-0.892;2023-01-08T11:28:26;6.80;;;1.50;;
62927;SDS011;51070;52.236;-0.892;2023-01-08T11:31:01;3.70;;;1.50;;
62927;SDS011;51070;52.236;-0.892;2023-01-08T11:33:36;4.80;;;1.50;;
62927;SDS011;51070;52.236;-0.892;2023-01-08T11:36:09;3.70;;;1.10;;
62927;SDS011;51070;52.236;-0.892;2023-01-08T11:38:44;5.00;;;1.40;;
62927;SDS011;51070;52.236;-0.892;2023-01-08T11:47:04;4.00;;;1.10;;
62927;SDS011;51070;52.236;-0.892;2023-01-08T11:52:47;5.20;;;1.20;;
62927;SDS011;51070;52.236;-0.892;2023-01-08T12:08:22;4.10;;;1.20;;
62927;SDS011;51070;52.236;-0.892;2023-01-08T12:10:51;2.50;;;0.60;;
62927;SDS011;51070;52.236;-0.892;2023-01-08T12:21:12;3.90;;;1.10;;
62927;SDS011;51070;52.236;-0.892;2023-01-08T12:29:01;0.50;;;0.00;;
62927;SDS011;51070;52.236;-0.892;2023-01-08T12:34:10;2.20;;;0.90;;
62927;SDS011;51070;52.236;-0.892;2023-01-08T12:36:47;3.50;;;0.60;;
62927;SDS011;51070;52.236;-0.892;2023-01-08T12:41:47;1.80;;;0.70;;
62927;SDS011;51070;52.236;-0.892;2023-01-08T12:44:16;4.00;;;0.50;;
62927;SDS011;51070;52.236;-0.892;2023-01-08T12:46:47;1.00;;;0.40;;
62927;SDS011;51070;52.236;-0.892;2023-01-08T12:49:17;4.60;;;0.70;;
62927;SDS011;51070;52.236;-0.892;2023-01-08T12:51:52;1.20;;;0.40;;
62927;SDS011;51070;52.236;-0.892;2023-01-08T12:57:17;1.80;;;0.50;;
62927;SDS011;51070;52.236;-0.892;2023-01-08T12:59:53;0.60;;;0.40;;
62927;SDS011;51070;52.236;-0.892;2023-01-08T13:07:44;1.50;;;0.50;;
62927;SDS011;51070;52.236;-0.892;2023-01-08T13:12:55;0.90;;;0.50;;
62927;SDS011;51070;52.236;-0.892;2023-01-08T13:15:23;1.10;;;0.60;;
62927;SDS011;51070;52.236;-0.892;2023-01-08T13:20:22;4.20;;;0.70;;
62927;SDS011;51070;52.236;-0.892;2023-01-08T13:22:54;2.20;;;0.70;;
62927;SDS011;51070;52.236;-0.892;2023-01-08T13:25:33;3.30;;;1.00;;
62927;SDS011;51070;52.236;-0.892;2023-01-08T13:28:01;2.20;;;0.70;;
62927;SDS011;51070;52.236;-0.892;2023-01-08T13:30:50;1.30;;;0.40;;
62927;SDS011;51070;52.236;-0.892;2023-01-08T13:35:50;1.10;;;0.50;;
62927;SDS011;51070;52.236;-0.892;2023-01-08T13:38:16;1.10;;;0.60;;
62927;SDS011;51070;52.236;-0.892;2023-01-08T13:48:25;0.30;;;0.30;;
62927;SDS011;51070;52.236;-0.892;2023-01-08T13:51:02;1.00;;;0.40;;
62927;SDS011;51070;52.236;-0.892;2023-01-08T13:53:28;0.70;;;0.30;;
62927;SDS011;51070;52.236;-0.892;2023-01-08T13:56:01;0.90;;;0.20;;
62927;SDS011;51070;52.236;-0.892;2023-01-08T13:58:32;1.60;;;0.50;;
62927;SDS011;51070;52.236;-0.892;2023-01-08T14:01:08;0.30;;;0.30;;
62927;SDS011;51070;52.236;-0.892;2023-01-08T14:03:35;1.20;;;0.40;;
62927;SDS011;51070;52.236;-0.892;2023-01-08T14:06:22;1.60;;;0.40;;
62927;SDS011;51070;52.236;-0.892;2023-01-08T14:11:24;1.40;;;0.40;;
62927;SDS011;51070;52.236;-0.892;2023-01-08T14:13:51;0.60;;;0.50;;
62927;SDS011;51070;52.236;-0.892;2023-01-08T14:16:17;1.30;;;0.30;;
62927;SDS011;51070;52.236;-0.892;2023-01-08T14:18:44;0.50;;;0.40;;
62927;SDS011;51070;52.236;-0.892;2023-01-08T14:21:11;0.30;;;0.30;;
62927;SDS011;51070;52.236;-0.892;2023-01-08T14:23:44;0.20;;;0.20;;
62927;SDS011;51070;52.236;-0.892;2023-01-08T14:26:28;2.10;;;0.80;;
62927;SDS011;51070;52.236;-0.892;2023-01-08T14:28:59;0.40;;;0.40;;
62927;SDS011;51070;52.236;-0.892;2023-01-08T14:31:26;2.10;;;0.60;;
62927;SDS011;51070;52.236;-0.892;2023-01-08T14:33:56;0.30;;;0.30;;
62927;SDS011;51070;52.236;-0.892;2023-01-08T14:36:23;1.10;;;0.60;;
62927;SDS011;51070;52.236;-0.892;2023-01-08T14:38:49;1.10;;;0.40;;
62927;SDS011;51070;52.236;-0.892;2023-01-08T14:41:18;3.20;;;0.60;;
62927;SDS011;51070;52.236;-0.892;2023-01-08T14:44:14;0.80;;;0.40;;
62927;SDS011;51070;52.236;-0.892;2023-01-08T14:46:41;1.00;;;0.40;;
62927;SDS011;51070;52.236;-0.892;2023-01-08T14:49:13;1.50;;;0.50;;
62927;SDS011;51070;52.236;-0.892;2023-01-08T14:51:44;0.60;;;0.40;;
62927;SDS011;51070;52.236;-0.892;2023-01-08T14:54:12;2.70;;;0.80;;
62927;SDS011;51070;52.236;-0.892;2023-01-08T14:56:42;0.20;;;0.20;;
62927;SDS011;51070;52.236;-0.892;2023-01-08T14:59:16;0.60;;;0.60;;
62927;SDS011;51070;52.236;-0.892;2023-01-08T15:01:49;3.40;;;0.60;;
62927;SDS011;51070;52.236;-0.892;2023-01-08T15:04:19;1.00;;;0.50;;
62927;SDS011;51070;52.236;-0.892;2023-01-08T15:06:45;1.60;;;0.40;;
62927;SDS011;51070;52.236;-0.892;2023-01-08T15:09:30;1.30;;;0.60;;
62927;SDS011;51070;52.236;-0.892;2023-01-08T15:11:58;2.00;;;0.80;;
62927;SDS011;51070;52.236;-0.892;2023-01-08T15:14:27;1.50;;;0.60;;
62927;SDS011;51070;52.236;-0.892;2023-01-08T15:16:58;3.30;;;0.80;;
62927;SDS011;51070;52.236;-0.892;2023-01-08T15:19:33;0.70;;;0.40;;
62927;SDS011;51070;52.236;-0.892;2023-01-08T15:22:09;2.00;;;0.70;;
62927;SDS011;51070;52.236;-0.892;2023-01-08T15:24:42;4.10;;;0.80;;
62927;SDS011;51070;52.236;-0.892;2023-01-08T15:27:16;4.60;;;0.90;;
62927;SDS011;51070;52.236;-0.892;2023-01-08T15:29:48;0.90;;;0.60;;
62927;SDS011;51070;52.236;-0.892;2023-01-08T15:34:40;4.00;;;0.70;;
62927;SDS011;51070;52.236;-0.892;2023-01-08T15:37:07;1.80;;;0.80;;
62927;SDS011;51070;52.236;-0.892;2023-01-08T15:39:33;1.40;;;0.80;;
62927;SDS011;51070;52.236;-0.892;2023-01-08T15:42:42;2.70;;;0.60;;
62927;SDS011;51070;52.236;-0.892;2023-01-08T15:45:27;1.40;;;0.80;;
62927;SDS011;51070;52.236;-0.892;2023-01-08T15:47:53;2.20;;;0.80;;
62927;SDS011;51070;52.236;-0.892;2023-01-08T15:50:19;2.20;;;1.20;;
62927;SDS011;51070;52.236;-0.892;2023-01-08T15:52:44;2.50;;;1.00;;
62927;SDS011;51070;52.236;-0.892;2023-01-08T15:55:20;2.70;;;1.10;;
62927;SDS011;51070;52.236;-0.892;2023-01-08T15:57:47;1.80;;;0.90;;
62927;SDS011;51070;52.236;-0.892;2023-01-08T16:00:15;2.90;;;0.90;;
62927;SDS011;51070;52.236;-0.892;2023-01-08T16:02:43;4.20;;;1.50;;
62927;SDS011;51070;52.236;-0.892;2023-01-08T16:05:10;1.90;;;0.60;;
62927;SDS011;51070;52.236;-0.892;2023-01-08T16:07:36;3.50;;;1.10;;
62927;SDS011;51070;52.236;-0.892;2023-01-08T16:10:05;1.60;;;0.80;;
62927;SDS011;51070;52.236;-0.892;2023-01-08T16:12:31;3.80;;;1.60;;
62927;SDS011;51070;52.236;-0.892;2023-01-08T16:14:56;3.70;;;1.10;;
62927;SDS011;51070;52.236;-0.892;2023-01-08T16:17:22;1.50;;;0.80;;
62927;SDS011;51070;52.236;-0.892;2023-01-08T16:19:47;3.00;;;1.30;;
62927;SDS011;51070;52.236;-0.892;2023-01-08T16:22:13;3.20;;;1.20;;
62927;SDS011;51070;52.236;-0.892;2023-01-08T16:24:38;4.90;;;1.30;;
62927;SDS011;51070;52.236;-0.892;2023-01-08T16:27:04;6.80;;;1.50;;
62927;SDS011;51070;52.236;-0.892;2023-01-08T16:29:31;3.10;;;0.90;;